createdAt,value
2023-03-25T00:00:16.752Z,99901.38
2023-03-25T00:00:39.552Z,99897.75
2023-03-25T00:01:02.971Z,99899.66
2023-03-25T00:01:25.982Z,99866.09
2023-03-25T00:01:48.984Z,99900.75
2023-03-25T00:02:12.549Z,99897.00
2023-03-25T00:02:34.711Z,99898.28
2023-03-25T00:02:57.136Z,99892.50
2023-03-25T00:03:22.384Z,99898.34
2023-03-25T00:03:46.535Z,99896.25
2023-03-25T00:04:08.696Z,99893.22
2023-03-25T00:04:31.246Z,99895.66
2023-03-25T00:04:54.445Z,99893.75
2023-03-25T00:05:18.924Z,99892.59
2023-03-25T00:05:40.586Z,99897.88
2023-03-25T00:06:02.266Z,99897.88
2023-03-25T00:06:24.896Z,99893.66
2023-03-25T00:06:46.837Z,99885.91
2023-03-25T00:07:08.507Z,99894.59
2023-03-25T00:07:30.097Z,99893.75
2023-03-25T00:07:53.807Z,99891.00
2023-03-25T00:08:15.755Z,99888.59
2023-03-25T00:08:37.946Z,99890.13
2023-03-25T00:08:59.539Z,99889.34
2023-03-25T00:09:22.083Z,99852.78
2023-03-25T00:09:43.719Z,99892.28
2023-03-25T00:10:07.044Z,99892.13
2023-03-25T00:10:29.976Z,99891.16
2023-03-25T00:10:54.310Z,99891.06
2023-03-25T00:11:15.948Z,99897.19
2023-03-25T00:11:37.585Z,99892.59
2023-03-25T00:11:59.242Z,99890.91
2023-03-25T00:12:21.884Z,99886.91
2023-03-25T00:12:43.721Z,99894.06
2023-03-25T00:13:05.873Z,99889.31
2023-03-25T00:13:27.921Z,99889.31
2023-03-25T00:13:50.803Z,99891.78
2023-03-25T00:14:12.471Z,99895.06
2023-03-25T00:14:34.097Z,99885.13
2023-03-25T00:14:55.766Z,99888.66
2023-03-25T00:15:18.636Z,99894.53
2023-03-25T00:15:42.799Z,99896.00
2023-03-25T00:16:07.107Z,99892.63
2023-03-25T00:16:28.858Z,99897.88
2023-03-25T00:16:53.200Z,99892.63
2023-03-25T00:17:17.405Z,99894.91
2023-03-25T00:17:39.523Z,99897.13
2023-03-25T00:18:02.099Z,99894.34
2023-03-25T00:18:26.517Z,99900.28
2023-03-25T00:18:48.156Z,99890.81
2023-03-25T00:19:09.848Z,99895.13
2023-03-25T00:19:31.979Z,99888.75
2023-03-25T00:19:55.519Z,99895.53
2023-03-25T00:20:18.296Z,99880.06
2023-03-25T00:20:40.893Z,99901.94
2023-03-25T00:21:04.652Z,99901.75
2023-03-25T00:21:27.421Z,99897.19
2023-03-25T00:21:50.418Z,99897.06
2023-03-25T00:22:12.166Z,99902.41
2023-03-25T00:22:33.796Z,99893.31
2023-03-25T00:22:56.701Z,99896.22
2023-03-25T00:23:19.684Z,99890.53
2023-03-25T00:23:42.262Z,99895.53
2023-03-25T00:24:04.078Z,99894.41
2023-03-25T00:24:26.765Z,99887.38
2023-03-25T00:24:49.140Z,99901.22
2023-03-25T00:25:16.439Z,99895.38
2023-03-25T00:25:39.628Z,99894.53
2023-03-25T00:26:03.131Z,99891.53
2023-03-25T00:26:24.900Z,99894.06
2023-03-25T00:26:48.754Z,99888.25
2023-03-25T00:27:11.883Z,99891.53
2023-03-25T00:27:34.699Z,99893.66
2023-03-25T00:27:56.656Z,99893.59
2023-03-25T00:28:18.933Z,99894.94
2023-03-25T00:28:40.629Z,99891.06
2023-03-25T00:29:03.301Z,99901.56
2023-03-25T00:29:25.052Z,99882.38
2023-03-25T00:29:48.681Z,99891.16
2023-03-25T00:30:11.731Z,99882.06
2023-03-25T00:30:34.693Z,99890.88
2023-03-25T00:30:58.867Z,99882.13
2023-03-25T00:31:22.097Z,99896.81
2023-03-25T00:31:44.051Z,99891.31
2023-03-25T00:32:07.313Z,99881.06
2023-03-25T00:32:29.670Z,99890.47
2023-03-25T00:32:52.550Z,99891.31
2023-03-25T00:33:18.070Z,99883.47
2023-03-25T00:33:41.876Z,99889.19
2023-03-25T00:34:03.707Z,99871.81
2023-03-25T00:34:26.775Z,99888.72
2023-03-25T00:34:48.755Z,99898.66
2023-03-25T00:35:10.638Z,99893.81
2023-03-25T00:35:33.986Z,99894.34
2023-03-25T00:36:01.882Z,99893.22
2023-03-25T00:36:26.144Z,99887.38
2023-03-25T00:36:47.834Z,99892.44
2023-03-25T00:37:11.736Z,99887.97
2023-03-25T00:37:33.361Z,99886.06
2023-03-25T00:38:00.083Z,99889.19
2023-03-25T00:38:24.412Z,99885.81
2023-03-25T00:38:50.063Z,99883.78
2023-03-25T00:39:11.767Z,99870.75
2023-03-25T00:39:33.711Z,99884.75
2023-03-25T00:39:55.375Z,99879.03
2023-03-25T00:40:17.158Z,99882.56
2023-03-25T00:40:41.969Z,99875.63
2023-03-25T00:41:11.120Z,99879.09
2023-03-25T00:41:33.588Z,99885.38
2023-03-25T00:41:57.226Z,99884.75
2023-03-25T00:42:26.031Z,99888.81
2023-03-25T00:42:50.074Z,99889.84
2023-03-25T00:43:14.367Z,99888.97
2023-03-25T00:43:37.686Z,99884.66
2023-03-25T00:44:00.663Z,99881.41
2023-03-25T00:44:23.581Z,99885.34
2023-03-25T00:44:45.459Z,99895.19
2023-03-25T00:45:08.422Z,99891.66
2023-03-25T00:45:31.766Z,99882.00
2023-03-25T00:45:55.411Z,99887.00
2023-03-25T00:46:17.284Z,99890.25
2023-03-25T00:46:38.961Z,99892.84
2023-03-25T00:47:01.645Z,99885.78
2023-03-25T00:47:24.594Z,99892.84
2023-03-25T00:47:46.422Z,99891.72
2023-03-25T00:48:08.205Z,99891.19
2023-03-25T00:48:30.045Z,99892.66
2023-03-25T00:48:52.816Z,99898.59
2023-03-25T00:49:14.525Z,99888.56
2023-03-25T00:49:36.644Z,99892.59
2023-03-25T00:49:58.311Z,99888.03
2023-03-25T00:50:21.852Z,99888.63
2023-03-25T00:50:43.497Z,99892.34
2023-03-25T00:51:08.990Z,99886.22
2023-03-25T00:51:31.384Z,99891.56
2023-03-25T00:51:54.323Z,99883.72
2023-03-25T00:52:16.446Z,99887.88
2023-03-25T00:52:38.216Z,99885.63
2023-03-25T00:52:59.819Z,99882.09
2023-03-25T00:53:21.478Z,99893.41
2023-03-25T00:53:44.110Z,99899.28
2023-03-25T00:54:07.492Z,99890.66
2023-03-25T00:54:29.137Z,99889.19
2023-03-25T00:54:50.765Z,99898.28
2023-03-25T00:55:12.578Z,99887.66
2023-03-25T00:55:35.324Z,99893.16
2023-03-25T00:55:59.574Z,99891.59
2023-03-25T00:56:22.117Z,99887.59
2023-03-25T00:56:44.576Z,99883.50
2023-03-25T00:57:08.588Z,99884.09
2023-03-25T00:57:32.185Z,99884.47
2023-03-25T00:57:53.883Z,99887.06
2023-03-25T00:58:15.682Z,99893.84
2023-03-25T00:58:38.632Z,99885.69
2023-03-25T00:59:00.335Z,99890.84
2023-03-25T00:59:22.124Z,99890.19
2023-03-25T00:59:43.789Z,99882.31
2023-03-25T01:00:08.657Z,99860.72
2023-03-25T01:00:31.036Z,99879.66
2023-03-25T01:00:53.020Z,99884.28
2023-03-25T01:01:19.248Z,99878.81
2023-03-25T01:01:43.453Z,99882.69
2023-03-25T01:02:06.834Z,99878.72
2023-03-25T01:02:31.087Z,99880.13
2023-03-25T01:02:54.033Z,99886.06
2023-03-25T01:03:16.533Z,99881.00
2023-03-25T01:03:39.522Z,99886.72
2023-03-25T01:04:02.216Z,99886.59
2023-03-25T01:04:24.135Z,99886.59
2023-03-25T01:04:46.582Z,99896.44
2023-03-25T01:05:11.335Z,99878.81
2023-03-25T01:05:33.251Z,99891.19
2023-03-25T01:05:56.518Z,99877.53
2023-03-25T01:06:18.100Z,99882.00
2023-03-25T01:06:43.974Z,99876.75
2023-03-25T01:07:05.872Z,99878.81
2023-03-25T01:07:29.337Z,99884.88
2023-03-25T01:07:51.763Z,99882.34
2023-03-25T01:08:14.948Z,99888.63
2023-03-25T01:08:37.608Z,99878.91
2023-03-25T01:09:01.047Z,99876.31
2023-03-25T01:09:22.727Z,99891.97
2023-03-25T01:09:46.524Z,99871.22
2023-03-25T01:10:11.612Z,99872.63
2023-03-25T01:10:35.553Z,99879.31
2023-03-25T01:10:57.322Z,99877.63
2023-03-25T01:11:22.992Z,99879.19
2023-03-25T01:11:47.370Z,99888.63
2023-03-25T01:12:09.368Z,99893.09
2023-03-25T01:12:31.615Z,99878.91
2023-03-25T01:12:53.227Z,99875.19
2023-03-25T01:13:14.870Z,99880.44
2023-03-25T01:13:39.794Z,99874.84
2023-03-25T01:14:08.065Z,99873.38
2023-03-25T01:14:29.916Z,99872.00
2023-03-25T01:14:53.181Z,99875.53
2023-03-25T01:15:16.288Z,99877.03
2023-03-25T01:15:40.811Z,99876.66
2023-03-25T01:16:07.827Z,99870.31
2023-03-25T01:16:31.549Z,99868.84
2023-03-25T01:16:55.519Z,99868.84
2023-03-25T01:17:17.365Z,99872.97
2023-03-25T01:17:39.226Z,99870.06
2023-03-25T01:18:01.003Z,99865.34
2023-03-25T01:18:22.656Z,99866.97
2023-03-25T01:18:44.830Z,99867.22
2023-03-25T01:19:07.765Z,99866.00
2023-03-25T01:19:29.462Z,99857.88
2023-03-25T01:19:52.214Z,99872.63
2023-03-25T01:20:13.874Z,99870.91
2023-03-25T01:20:35.614Z,99870.59
2023-03-25T01:20:57.347Z,99867.13
2023-03-25T01:21:20.149Z,99862.34
2023-03-25T01:21:42.185Z,99870.06
2023-03-25T01:22:05.636Z,99875.66
2023-03-25T01:22:27.489Z,99874.97
2023-03-25T01:23:33.937Z,99875.38
2023-03-25T01:23:55.665Z,99860.53
2023-03-25T01:24:19.341Z,99872.78
2023-03-25T01:24:42.087Z,99886.66
2023-03-25T01:25:04.210Z,99860.78
2023-03-25T01:25:26.223Z,99870.38
2023-03-25T01:25:48.485Z,99881.38
2023-03-25T01:26:12.918Z,99884.16
2023-03-25T01:26:36.243Z,99881.81
2023-03-25T01:26:59.886Z,99875.66
2023-03-25T01:27:24.801Z,99881.59
2023-03-25T01:27:47.510Z,99877.31
2023-03-25T01:28:10.818Z,99875.56
2023-03-25T01:28:32.693Z,99872.72
2023-03-25T01:28:54.618Z,99884.50
2023-03-25T01:29:19.982Z,99883.19
2023-03-25T01:29:41.780Z,99869.59
2023-03-25T01:30:04.592Z,99887.56
2023-03-25T01:30:26.334Z,99871.50
2023-03-25T01:30:49.121Z,99875.53
2023-03-25T01:31:13.173Z,99880.72
2023-03-25T01:31:34.983Z,99871.25
2023-03-25T01:31:57.108Z,99871.19
2023-03-25T01:32:19.856Z,99869.72
2023-03-25T01:32:41.554Z,99876.31
2023-03-25T01:33:03.379Z,99869.09
2023-03-25T01:33:25.500Z,99878.97
2023-03-25T01:33:48.124Z,99870.22
2023-03-25T01:34:10.761Z,99873.13
2023-03-25T01:34:33.022Z,99873.81
2023-03-25T01:34:57.320Z,99863.81
2023-03-25T01:35:19.875Z,99869.50
2023-03-25T01:35:42.017Z,99874.50
2023-03-25T01:36:04.630Z,99875.19
2023-03-25T01:36:29.408Z,99876.84
2023-03-25T01:36:55.397Z,99881.94
2023-03-25T01:37:18.096Z,99869.84
2023-03-25T01:37:39.806Z,99861.94
2023-03-25T01:38:01.519Z,99874.22
2023-03-25T01:38:24.104Z,99867.94
2023-03-25T01:38:47.973Z,99866.81
2023-03-25T01:39:10.739Z,99876.19
2023-03-25T01:39:32.719Z,99872.16
2023-03-25T01:39:55.275Z,99872.00
2023-03-25T01:40:20.988Z,99872.63
2023-03-25T01:40:45.660Z,99864.00
2023-03-25T01:41:09.165Z,99852.09
2023-03-25T01:41:46.292Z,99864.56
2023-03-25T01:42:11.897Z,99869.50
2023-03-25T01:42:33.611Z,99872.91
2023-03-25T01:42:56.261Z,99865.78
2023-03-25T01:43:18.286Z,99828.63
2023-03-25T01:43:39.933Z,99868.19
2023-03-25T01:44:04.016Z,99859.53
2023-03-25T01:45:04.629Z,99864.41
2023-03-25T01:45:29.225Z,99866.25
2023-03-25T01:45:52.000Z,99862.66
2023-03-25T01:46:15.182Z,99866.44
2023-03-25T01:46:38.550Z,99865.56
2023-03-25T01:47:05.074Z,99860.31
2023-03-25T01:47:27.405Z,99859.97
2023-03-25T01:47:58.428Z,99859.06
2023-03-25T01:48:23.634Z,99861.72
2023-03-25T01:48:45.321Z,99854.22
2023-03-25T01:49:09.776Z,99859.28
2023-03-25T01:49:38.815Z,99864.31
2023-03-25T01:50:00.474Z,99874.97
2023-03-25T01:50:22.501Z,99859.97
2023-03-25T01:50:48.455Z,99868.41
2023-03-25T01:51:14.662Z,99862.75
2023-03-25T01:51:40.767Z,99856.31
2023-03-25T01:52:07.552Z,99863.81
2023-03-25T01:52:30.729Z,99861.03
2023-03-25T01:52:52.796Z,99857.31
2023-03-25T01:53:14.527Z,99859.81
2023-03-25T01:53:36.333Z,99854.38
2023-03-25T01:53:59.172Z,99860.44
2023-03-25T01:54:21.201Z,99854.00
2023-03-25T01:54:44.045Z,99852.75
2023-03-25T01:55:08.031Z,99851.97
2023-03-25T01:55:33.189Z,99851.44
2023-03-25T01:55:55.932Z,99836.84
2023-03-25T01:56:22.435Z,99859.19
2023-03-25T01:56:47.042Z,99859.91
2023-03-25T01:57:13.036Z,99858.47
2023-03-25T01:57:37.190Z,99861.72
2023-03-25T01:58:02.758Z,99863.56
2023-03-25T01:58:27.221Z,99855.81
2023-03-25T01:58:51.138Z,99853.69
2023-03-25T01:59:14.928Z,99856.78
2023-03-25T01:59:39.260Z,99854.47
2023-03-25T02:00:01.462Z,99862.84
2023-03-25T02:00:26.605Z,99867.75
2023-03-25T02:00:51.908Z,99855.41
2023-03-25T02:01:17.164Z,99853.56
2023-03-25T02:01:38.765Z,99852.06
2023-03-25T02:02:04.131Z,99851.34
2023-03-25T02:02:34.831Z,99850.03
2023-03-25T02:03:00.299Z,99850.88
2023-03-25T02:03:23.555Z,99855.25
2023-03-25T02:03:46.516Z,99854.72
2023-03-25T02:04:11.300Z,99846.25
2023-03-25T02:04:39.107Z,99854.78
2023-03-25T02:05:05.602Z,99851.91
2023-03-25T02:05:33.669Z,99850.47
2023-03-25T02:06:00.803Z,99855.78
2023-03-25T02:06:28.935Z,99846.41
2023-03-25T02:06:53.753Z,99848.66
2023-03-25T02:07:18.639Z,99848.94
2023-03-25T02:07:42.878Z,99842.84
2023-03-25T02:08:09.151Z,99856.84
2023-03-25T02:08:32.707Z,99817.06
2023-03-25T02:08:56.870Z,99855.19
2023-03-25T02:09:21.586Z,99858.59
2023-03-25T02:09:44.517Z,99847.94
2023-03-25T02:10:08.504Z,99846.59
2023-03-25T02:10:30.552Z,99845.66
2023-03-25T02:10:54.117Z,99848.94
2023-03-25T02:11:17.773Z,99853.00
2023-03-25T02:11:39.871Z,99859.09
2023-03-25T02:12:01.514Z,99836.50
2023-03-25T02:12:25.067Z,99859.03
2023-03-25T02:12:47.285Z,99855.31
2023-03-25T02:13:10.315Z,99863.22
2023-03-25T02:13:34.665Z,99834.25
2023-03-25T02:14:00.089Z,99852.97
2023-03-25T02:14:26.024Z,99855.03
2023-03-25T02:14:47.716Z,99853.59
2023-03-25T02:15:11.828Z,99846.00
2023-03-25T02:15:49.309Z,99844.09
2023-03-25T02:16:25.516Z,99842.09
2023-03-25T02:17:01.038Z,99817.59
2023-03-25T02:17:33.571Z,99849.75
2023-03-25T02:18:17.496Z,99843.13
2023-03-25T02:18:49.355Z,99836.28
2023-03-25T02:20:09.203Z,99841.00
2023-03-25T02:21:18.012Z,99841.50
2023-03-25T02:22:14.749Z,99838.09
2023-03-25T02:23:11.277Z,99836.00
2023-03-25T02:24:14.575Z,99841.44
2023-03-25T02:25:19.036Z,99841.28
2023-03-25T02:26:22.794Z,99828.56
2023-03-25T02:27:14.013Z,99845.41
2023-03-25T02:27:57.219Z,99856.25
2023-03-25T02:28:29.681Z,99856.94
2023-03-25T02:29:02.090Z,99853.94
2023-03-25T02:29:38.455Z,99861.34
2023-03-25T02:30:42.464Z,99854.06
2023-03-25T02:31:19.052Z,99847.75
2023-03-25T02:31:55.910Z,99836.47
2023-03-25T02:32:38.006Z,99841.94
2023-03-25T02:33:27.547Z,99847.00
2023-03-25T02:34:19.480Z,99825.53
2023-03-25T02:35:21.750Z,99833.84
2023-03-25T02:36:02.012Z,99813.81
2023-03-25T02:37:09.300Z,99845.94
2023-03-25T02:37:51.056Z,99848.63
2023-03-25T02:38:26.229Z,99858.88
2023-03-25T02:38:50.464Z,99857.22
2023-03-25T02:39:17.814Z,99855.25
2023-03-25T02:39:44.549Z,99854.25
2023-03-25T02:40:10.976Z,99857.78
2023-03-25T02:40:38.336Z,99835.06
2023-03-25T02:41:06.827Z,99863.50
2023-03-25T02:41:40.293Z,99856.44
2023-03-25T02:42:09.189Z,99854.56
2023-03-25T02:42:37.612Z,99863.66
2023-03-25T02:43:03.665Z,99847.69
2023-03-25T02:43:33.439Z,99852.53
2023-03-25T02:44:01.819Z,99844.50
2023-03-25T02:44:31.526Z,99854.59
2023-03-25T02:45:00.235Z,99846.19
2023-03-25T02:45:30.192Z,99847.44
2023-03-25T02:45:58.279Z,99843.69
2023-03-25T02:46:23.803Z,99847.06
2023-03-25T02:46:50.166Z,99844.22
2023-03-25T02:47:17.982Z,99848.69
2023-03-25T02:47:47.589Z,99847.69
2023-03-25T02:48:14.944Z,99854.00
2023-03-25T02:48:42.478Z,99863.25
2023-03-25T02:49:08.600Z,99855.91
2023-03-25T02:49:36.045Z,99858.41
2023-03-25T02:50:04.693Z,99848.69
2023-03-25T02:50:30.814Z,99855.59
2023-03-25T02:50:57.263Z,99849.16
2023-03-25T02:51:26.030Z,99857.03
2023-03-25T02:51:55.677Z,99850.78
2023-03-25T02:52:21.587Z,99843.16
2023-03-25T02:52:50.463Z,99853.16
2023-03-25T02:53:17.082Z,99856.53
2023-03-25T02:53:42.871Z,99852.13
2023-03-25T02:54:09.189Z,99854.41
2023-03-25T02:54:34.219Z,99847.31
2023-03-25T02:55:04.778Z,99848.31
2023-03-25T02:55:30.510Z,99835.25
2023-03-25T02:55:54.992Z,99850.59
2023-03-25T02:56:22.289Z,99846.44
2023-03-25T02:56:47.321Z,99853.16
2023-03-25T02:57:14.408Z,99851.06
2023-03-25T02:57:39.898Z,99849.03
2023-03-25T02:58:09.816Z,99854.28
2023-03-25T02:58:33.283Z,99852.72
2023-03-25T02:58:56.960Z,99838.28
2023-03-25T02:59:22.147Z,99844.72
2023-03-25T02:59:47.887Z,99846.28
2023-03-25T03:00:15.207Z,99843.94
2023-03-25T03:00:38.301Z,99838.38
2023-03-25T03:01:00.204Z,99853.25
2023-03-25T03:01:26.622Z,99853.25
2023-03-25T03:01:51.241Z,99849.16
2023-03-25T03:02:15.825Z,99844.47
2023-03-25T03:02:43.251Z,99850.09
2023-03-25T03:03:07.222Z,99840.31
2023-03-25T03:03:30.042Z,99848.88
2023-03-25T03:03:55.247Z,99853.56
2023-03-25T03:04:16.943Z,99843.63
2023-03-25T03:04:46.234Z,99839.72
2023-03-25T03:05:23.124Z,99845.03
2023-03-25T03:05:50.514Z,99834.63
2023-03-25T03:06:17.751Z,99827.81
2023-03-25T03:06:42.810Z,99838.53
2023-03-25T03:07:04.563Z,99842.75
2023-03-25T03:07:29.376Z,99839.78
2023-03-25T03:08:05.033Z,99847.44
2023-03-25T03:08:42.047Z,99851.50
2023-03-25T03:09:23.157Z,99853.31
2023-03-25T03:09:51.560Z,99852.16
2023-03-25T03:10:22.852Z,99842.75
2023-03-25T03:10:52.930Z,99849.47
2023-03-25T03:11:20.342Z,99828.50
2023-03-25T03:11:52.396Z,99837.28
2023-03-25T03:12:27.925Z,99848.16
2023-03-25T03:12:59.498Z,99843.88
2023-03-25T03:13:28.863Z,99841.72
2023-03-25T03:14:14.760Z,99853.63
2023-03-25T03:14:56.230Z,99840.31
2023-03-25T03:15:27.398Z,99843.09
2023-03-25T03:16:01.999Z,99840.06
2023-03-25T03:16:32.890Z,99837.16
2023-03-25T03:17:05.749Z,99835.22
2023-03-25T03:17:39.214Z,99846.63
2023-03-25T03:18:09.868Z,99845.63
2023-03-25T03:18:44.736Z,99837.66
2023-03-25T03:19:21.090Z,99819.66
2023-03-25T03:19:52.663Z,99838.03
2023-03-25T03:20:19.915Z,99833.38
2023-03-25T03:20:54.807Z,99818.97
2023-03-25T03:21:23.253Z,99844.31
2023-03-25T03:21:55.337Z,99828.19
2023-03-25T03:22:34.113Z,99844.38
2023-03-25T03:23:06.099Z,99835.31
2023-03-25T03:23:33.849Z,99832.28
2023-03-25T03:23:58.336Z,99842.13
2023-03-25T03:24:25.568Z,99837.91
2023-03-25T03:24:51.367Z,99842.28
2023-03-25T03:25:24.030Z,99839.16
2023-03-25T03:25:50.984Z,99830.66
2023-03-25T03:26:24.775Z,99834.88
2023-03-25T03:26:55.282Z,99846.19
2023-03-25T03:27:26.178Z,99830.94
2023-03-25T03:27:53.938Z,99850.59
2023-03-25T03:28:27.500Z,99841.69
2023-03-25T03:28:55.348Z,99843.38
2023-03-25T03:29:20.370Z,99838.91
2023-03-25T03:29:47.339Z,99822.72
2023-03-25T03:30:13.724Z,99838.34
2023-03-25T03:30:43.829Z,99849.13
2023-03-25T03:31:11.186Z,99843.22
2023-03-25T03:31:48.770Z,99838.31
2023-03-25T03:32:26.124Z,99831.81
2023-03-25T03:32:55.857Z,99842.28
2023-03-25T03:33:21.845Z,99833.31
2023-03-25T03:33:50.704Z,99833.50
2023-03-25T03:34:19.930Z,99836.81
2023-03-25T03:34:46.959Z,99841.97
2023-03-25T03:35:13.576Z,99841.09
2023-03-25T03:35:40.733Z,99819.03
2023-03-25T03:36:07.209Z,99826.00
2023-03-25T03:36:34.469Z,99839.75
2023-03-25T03:36:58.401Z,99835.53
2023-03-25T03:37:27.341Z,99842.53
2023-03-25T03:37:54.903Z,99834.47
2023-03-25T03:38:23.738Z,99833.97
2023-03-25T03:38:51.824Z,99838.78
2023-03-25T03:39:20.652Z,99840.06
2023-03-25T03:39:44.491Z,99821.31
2023-03-25T03:40:14.032Z,99832.19
2023-03-25T03:40:39.877Z,99827.91
2023-03-25T03:41:07.268Z,99847.66
2023-03-25T03:41:31.211Z,99841.81
2023-03-25T03:41:58.618Z,99840.66
2023-03-25T03:42:24.532Z,99837.75
2023-03-25T03:42:52.824Z,99834.00
2023-03-25T03:43:18.534Z,99836.50
2023-03-25T03:43:46.450Z,99840.47
2023-03-25T03:44:14.207Z,99824.69
2023-03-25T03:44:39.945Z,99840.41
2023-03-25T03:45:07.832Z,99827.13
2023-03-25T03:45:35.161Z,99851.38
2023-03-25T03:46:01.540Z,99839.88
2023-03-25T03:46:29.308Z,99831.09
2023-03-25T03:46:55.232Z,99818.03
2023-03-25T03:47:22.413Z,99842.59
2023-03-25T03:47:49.604Z,99839.00
2023-03-25T03:48:15.876Z,99831.84
2023-03-25T03:48:42.367Z,99844.84
2023-03-25T03:49:10.962Z,99843.94
2023-03-25T03:49:38.318Z,99839.06
2023-03-25T03:50:04.937Z,99845.19
2023-03-25T03:50:31.602Z,99847.16
2023-03-25T03:50:56.826Z,99837.50
2023-03-25T03:51:24.998Z,99856.13
2023-03-25T03:51:52.433Z,99844.31
2023-03-25T03:52:21.550Z,99840.56
2023-03-25T03:52:48.094Z,99839.69
2023-03-25T03:53:15.966Z,99845.13
2023-03-25T03:53:42.554Z,99836.97
2023-03-25T03:54:10.070Z,99832.56
2023-03-25T03:54:35.922Z,99838.03
2023-03-25T03:55:02.100Z,99838.59
2023-03-25T03:55:29.260Z,99838.41
2023-03-25T03:56:01.914Z,99839.88
2023-03-25T03:56:28.988Z,99842.41
2023-03-25T03:56:54.279Z,99839.44
2023-03-25T03:57:21.410Z,99847.09
2023-03-25T03:57:48.073Z,99843.22
2023-03-25T03:58:15.548Z,99852.19
2023-03-25T03:58:41.808Z,99846.59
2023-03-25T03:59:09.344Z,99847.28
2023-03-25T03:59:40.397Z,99849.75
2023-03-25T04:00:06.543Z,99850.69
2023-03-25T04:00:41.948Z,99846.19
2023-03-25T04:01:09.893Z,99846.88
2023-03-25T04:01:38.033Z,99861.53
2023-03-25T04:02:03.263Z,99852.59
2023-03-25T04:02:32.861Z,99843.53
2023-03-25T04:02:59.519Z,99854.34
2023-03-25T04:03:24.685Z,99842.44
2023-03-25T04:03:53.278Z,99849.31
2023-03-25T04:04:20.505Z,99855.34
2023-03-25T04:04:43.883Z,99843.84
2023-03-25T04:05:08.877Z,99856.03
2023-03-25T04:05:31.882Z,99835.22
2023-03-25T04:05:59.624Z,99854.34
2023-03-25T04:06:26.926Z,99854.97
2023-03-25T04:06:56.902Z,99847.91
2023-03-25T04:07:22.366Z,99856.78
2023-03-25T04:07:54.581Z,99846.59
2023-03-25T04:08:26.498Z,99850.28
2023-03-25T04:08:58.814Z,99858.91
2023-03-25T04:09:28.043Z,99847.75
2023-03-25T04:09:56.689Z,99847.13
2023-03-25T04:10:23.058Z,99841.44
2023-03-25T04:10:52.724Z,99849.16
2023-03-25T04:11:21.896Z,99857.38
2023-03-25T04:11:47.171Z,99853.38
2023-03-25T04:12:17.019Z,99834.94
2023-03-25T04:12:44.423Z,99837.06
2023-03-25T04:13:10.617Z,99851.50
2023-03-25T04:13:35.308Z,99853.09
2023-03-25T04:14:00.879Z,99856.22
2023-03-25T04:14:23.820Z,99859.03
2023-03-25T04:14:46.225Z,99851.44
2023-03-25T04:15:08.989Z,99859.03
2023-03-25T04:15:30.648Z,99853.88
2023-03-25T04:15:53.599Z,99861.72
2023-03-25T04:16:16.661Z,99851.19
2023-03-25T04:16:38.558Z,99856.63
2023-03-25T04:17:00.222Z,99850.91
2023-03-25T04:17:23.974Z,99850.59
2023-03-25T04:17:47.986Z,99849.47
2023-03-25T04:18:09.920Z,99860.97
2023-03-25T04:18:33.810Z,99847.69
2023-03-25T04:18:58.333Z,99844.78
2023-03-25T04:19:20.059Z,99847.81
2023-03-25T04:19:41.694Z,99840.69
2023-03-25T04:20:06.577Z,99841.81
2023-03-25T04:20:35.116Z,99849.53
2023-03-25T04:20:56.930Z,99853.63
2023-03-25T04:21:18.655Z,99854.97
2023-03-25T04:21:40.285Z,99840.25
2023-03-25T04:22:04.197Z,99842.50
2023-03-25T04:22:26.217Z,99852.22
2023-03-25T04:22:47.806Z,99858.72
2023-03-25T04:23:10.404Z,99858.53
2023-03-25T04:23:32.300Z,99843.97
2023-03-25T04:23:56.312Z,99834.50
2023-03-25T04:24:20.519Z,99853.09
2023-03-25T04:24:42.714Z,99859.19
2023-03-25T04:25:05.861Z,99859.69
2023-03-25T04:25:30.333Z,99852.00
2023-03-25T04:25:53.550Z,99860.25
2023-03-25T04:26:15.545Z,99822.84
2023-03-25T04:26:38.197Z,99863.63
2023-03-25T04:27:03.624Z,99852.91
2023-03-25T04:27:29.764Z,99855.13
2023-03-25T04:27:53.648Z,99850.97
2023-03-25T04:28:17.699Z,99851.59
2023-03-25T04:28:41.839Z,99855.97
2023-03-25T04:29:04.766Z,99856.13
2023-03-25T04:29:26.403Z,99850.03
2023-03-25T04:29:47.994Z,99847.22
2023-03-25T04:30:11.722Z,99853.56
2023-03-25T04:30:35.554Z,99858.81
2023-03-25T04:31:00.287Z,99850.72
2023-03-25T04:31:22.044Z,99855.91
2023-03-25T04:31:47.110Z,99857.66
2023-03-25T04:32:11.902Z,99859.34
2023-03-25T04:32:35.713Z,99861.88
2023-03-25T04:32:57.458Z,99860.19
2023-03-25T04:33:20.899Z,99862.53
2023-03-25T04:33:46.662Z,99862.94
2023-03-25T04:34:09.858Z,99848.63
2023-03-25T04:34:31.440Z,99859.91
2023-03-25T04:34:57.574Z,99854.34
2023-03-25T04:35:21.081Z,99860.66
2023-03-25T04:35:42.731Z,99859.91
2023-03-25T04:36:06.750Z,99856.22
2023-03-25T04:36:29.720Z,99854.88
2023-03-25T04:36:51.891Z,99854.97
2023-03-25T04:37:13.836Z,99852.22
2023-03-25T04:37:37.033Z,99858.34
2023-03-25T04:37:59.349Z,99857.66
2023-03-25T04:38:21.171Z,99849.06
2023-03-25T04:38:45.642Z,99846.41
2023-03-25T04:39:11.690Z,99852.47
2023-03-25T04:39:33.382Z,99853.06
2023-03-25T04:39:56.105Z,99848.84
2023-03-25T04:40:19.734Z,99848.53
2023-03-25T04:40:46.616Z,99831.88
2023-03-25T04:41:10.584Z,99850.25
2023-03-25T04:41:33.536Z,99841.50
2023-03-25T04:41:56.652Z,99859.16
2023-03-25T04:42:19.312Z,99858.53
2023-03-25T04:42:42.709Z,99828.56
2023-03-25T04:43:04.396Z,99843.06
2023-03-25T04:43:26.059Z,99848.31
2023-03-25T04:43:47.778Z,99848.06
2023-03-25T04:44:11.318Z,99839.28
2023-03-25T04:44:33.813Z,99808.38
2023-03-25T04:44:55.571Z,99804.56
2023-03-25T04:45:17.391Z,99854.34
2023-03-25T04:45:42.907Z,99858.47
2023-03-25T04:46:05.142Z,99859.97
2023-03-25T04:46:27.420Z,99856.38
2023-03-25T04:46:49.340Z,99859.84
2023-03-25T04:47:16.199Z,99859.34
2023-03-25T04:47:37.895Z,99858.19
2023-03-25T04:47:59.546Z,99856.91
2023-03-25T04:48:24.161Z,99856.59
2023-03-25T04:48:47.479Z,99851.91
2023-03-25T04:49:19.082Z,99839.94
2023-03-25T04:49:42.166Z,99855.66
2023-03-25T04:50:04.199Z,99849.41
2023-03-25T04:50:28.315Z,99839.16
2023-03-25T04:50:52.258Z,99853.06
2023-03-25T04:51:15.376Z,99847.06
2023-03-25T04:51:37.840Z,99858.25
2023-03-25T04:52:02.187Z,99855.25
2023-03-25T04:52:23.990Z,99839.75
2023-03-25T04:52:46.663Z,99867.66
2023-03-25T04:53:08.823Z,99852.31
2023-03-25T04:53:31.435Z,99856.06
2023-03-25T04:53:53.161Z,99850.44
2023-03-25T04:54:18.117Z,99852.94
2023-03-25T04:54:41.047Z,99849.34
2023-03-25T04:55:02.735Z,99857.78
2023-03-25T04:55:25.788Z,99855.06
2023-03-25T04:55:50.360Z,99852.63
2023-03-25T04:56:16.229Z,99855.59
2023-03-25T04:56:39.450Z,99855.44
2023-03-25T04:57:01.548Z,99854.78
2023-03-25T04:57:25.775Z,99854.56
2023-03-25T04:57:49.677Z,99859.97
2023-03-25T04:58:11.436Z,99843.09
2023-03-25T04:58:33.156Z,99856.44
2023-03-25T04:58:54.781Z,99861.00
2023-03-25T04:59:18.186Z,99862.16
2023-03-25T04:59:39.814Z,99863.75
2023-03-25T05:00:01.413Z,99856.53
2023-03-25T05:00:24.670Z,99863.88
2023-03-25T05:00:49.453Z,99851.28
2023-03-25T05:01:21.281Z,99862.16
2023-03-25T05:01:45.829Z,99869.13
2023-03-25T05:02:13.210Z,99857.63
2023-03-25T05:02:35.261Z,99861.78
2023-03-25T05:03:01.795Z,99855.41
2023-03-25T05:03:24.255Z,99853.56
2023-03-25T05:03:50.147Z,99861.16